地図

経路データ

SID SEASON NUMBER BASIN SUBBASIN NAME ISO_TIME NATURE LAT LON WMO_WIND WMO_PRES WMO_AGENCY TRACK_TYPE DIST2LAND LANDFALL IFLAG USA_AGENCY USA_ATCF_ID USA_LAT USA_LON USA_RECORD USA_STATUS USA_WIND USA_PRES USA_SSHS USA_R34_NE USA_R34_SE USA_R34_SW USA_R34_NW USA_R50_NE USA_R50_SE USA_R50_SW USA_R50_NW USA_R64_NE USA_R64_SE USA_R64_SW USA_R64_NW USA_POCI USA_ROCI USA_RMW USA_EYE TOKYO_LAT TOKYO_LON TOKYO_GRADE TOKYO_WIND TOKYO_PRES TOKYO_R50_DIR TOKYO_R50_LONG TOKYO_R50_SHORT TOKYO_R30_DIR TOKYO_R30_LONG TOKYO_R30_SHORT TOKYO_LAND CMA_LAT CMA_LON CMA_CAT CMA_WIND CMA_PRES HKO_LAT HKO_LON HKO_CAT HKO_WIND HKO_PRES NEWDELHI_LAT NEWDELHI_LON NEWDELHI_GRADE NEWDELHI_WIND NEWDELHI_PRES NEWDELHI_CI NEWDELHI_DP NEWDELHI_POCI REUNION_LAT REUNION_LON REUNION_TYPE REUNION_WIND REUNION_PRES REUNION_TNUM REUNION_CI REUNION_RMW REUNION_R34_NE REUNION_R34_SE REUNION_R34_SW REUNION_R34_NW REUNION_R50_NE REUNION_R50_SE REUNION_R50_SW REUNION_R50_NW REUNION_R64_NE REUNION_R64_SE REUNION_R64_SW REUNION_R64_NW BOM_LAT BOM_LON BOM_TYPE BOM_WIND BOM_PRES BOM_TNUM BOM_CI BOM_RMW BOM_R34_NE BOM_R34_SE BOM_R34_SW BOM_R34_NW BOM_R50_NE BOM_R50_SE BOM_R50_SW BOM_R50_NW BOM_R64_NE BOM_R64_SE BOM_R64_SW BOM_R64_NW BOM_ROCI BOM_POCI BOM_EYE BOM_POS_METHOD BOM_PRES_METHOD NADI_LAT NADI_LON NADI_CAT NADI_WIND NADI_PRES WELLINGTON_LAT WELLINGTON_LON WELLINGTON_WIND WELLINGTON_PRES DS824_LAT DS824_LON DS824_STAGE DS824_WIND DS824_PRES TD9636_LAT TD9636_LON TD9636_STAGE TD9636_WIND TD9636_PRES TD9635_LAT TD9635_LON TD9635_WIND TD9635_PRES TD9635_ROCI NEUMANN_LAT NEUMANN_LON NEUMANN_CLASS NEUMANN_WIND NEUMANN_PRES MLC_LAT MLC_LON MLC_CLASS MLC_WIND MLC_PRES USA_GUST BOM_GUST BOM_GUST_PER REUNION_GUST REUNION_GUST_PER USA_SEAHGT USA_SEARAD_NE USA_SEARAD_SE USA_SEARAD_SW USA_SEARAD_NW STORM_SPEED STORM_DIR
1894184N25089 1894 26 NI BB NOT_NAMED 1894-07-03 00:00:00 TS 25.0000 88.9000 main 0 0 _________O____ -1 25.0000 88.9000 TC 30 3 270
1894184N25089 1894 26 NI BB NOT_NAMED 1894-07-03 03:00:00 TS 24.9999 88.7350 main 0 0 _________PO___ -1 24.9998 88.6525 TC 30 25.0000 88.9000 1 5 270
1894184N25089 1894 26 NI BB NOT_NAMED 1894-07-03 06:00:00 TS 25.0036 88.3727 main 0 0 _________OP___ -1 25.0000 88.3000 TC 30 25.0089 88.4817 1 8 270
1894184N25089 1894 26 NI BB NOT_NAMED 1894-07-03 09:00:00 TS 25.0060 87.9003 main 0 0 _________PP___ -1 25.0002 87.7800 TC 30 25.0138 88.0606 1 9 270
1894184N25089 1894 26 NI BB NOT_NAMED 1894-07-03 12:00:00 TS 25.0059 87.4171 main 0 0 _________OP___ -1 25.0000 87.2000 TC 30 25.0118 87.6343 1 9 270
1894184N25089 1894 26 NI BB NOT_NAMED 1894-07-03 15:00:00 TS 24.9999 86.9462 main 0 0 _________PO___ -1 24.9998 86.6925 TC 30 25.0000 87.2000 1 9 269
1894184N25089 1894 26 NI BB NOT_NAMED 1894-07-03 18:00:00 TS 24.9893 86.4766 main 0 0 _________OP___ -1 25.0000 86.2000 TC 30 24.9787 86.7533 1 9 268
1894184N25089 1894 26 NI BB NOT_NAMED 1894-07-03 21:00:00 TS 24.9727 86.0055 main 0 0 _________PP___ -1 24.9845 85.7297 TC 30 24.9609 86.2812 1 9 269
1894184N25089 1894 26 NI BB NOT_NAMED 1894-07-04 00:00:00 TS 24.9814 85.4843 main 0 0 _________OP___ -1 25.0000 85.2000 TC 30 24.9627 85.7686 1 10 274
1894184N25089 1894 26 NI BB NOT_NAMED 1894-07-04 03:00:00 TS 25.0388 84.8650 main 0 0 _________PO___ -1 25.0776 84.5300 TC 30 25.0000 85.2000 1 12 278
1894184N25089 1894 26 NI BB NOT_NAMED 1894-07-04 06:00:00 TS 25.1484 84.1872 main 0 0 _________OP___ -1 25.2000 83.8000 TC 30 25.0968 84.5745 1 12 282
1894184N25089 1894 26 NI BB NOT_NAMED 1894-07-04 09:00:00 TS 25.2879 83.5179 main 0 0 _________PP___ -1 25.3489 83.1449 TC 30 25.2268 83.8910 1 13 283
1894184N25089 1894 26 NI BB NOT_NAMED 1894-07-04 12:00:00 TS 25.4342 82.7809 main 0 0 _________OP___ -1 25.5000 82.4000 TC 30 25.3683 83.1618 1 15 280
1894184N25089 1894 26 NI BB NOT_NAMED 1894-07-04 15:00:00 TS 25.5581 81.8925 main 0 0 _________PO___ -1 25.6162 81.3851 TC 30 25.5000 82.4000 1 17 278
1894184N25089 1894 26 NI BB NOT_NAMED 1894-07-04 18:00:00 TS 25.6522 80.9496 main 0 0 _________OP___ -1 25.7000 80.4000 TC 30 25.6045 81.4992 1 16 276
1894184N25089 1894 26 NI BB NOT_NAMED 1894-07-04 21:00:00 TS 25.7281 80.1203 main 0 0 _________PP___ -1 25.7645 79.6499 TC 30 25.6918 80.5906 1 13 276
1894184N25089 1894 26 NI BB NOT_NAMED 1894-07-05 00:00:00 TS 25.7788 79.4933 main 0 0 _________OP___ -1 25.8000 79.2000 TC 30 25.7576 79.7866 1 9 275
1894184N25089 1894 26 NI BB NOT_NAMED 1894-07-05 03:00:00 TS 25.8036 79.1550 main 0 0 _________PO___ -1 25.8071 79.1099 TC 30 25.8000 79.2000 1 4 275
1894184N25089 1894 26 NI BB NOT_NAMED 1894-07-05 06:00:00 TS 25.8094 79.0848 main 0 0 _________OP___ -1 25.8000 79.2000 TC 30 25.8189 78.9695 1 1 275
1894184N25089 1894 26 NI BB NOT_NAMED 1894-07-05 09:00:00 TS 25.8098 79.0798 main 0 0 _________PP___ -1 25.8000 79.2000 TC 30 25.8197 78.9595 1 0 96
1894184N25089 1894 26 NI BB NOT_NAMED 1894-07-05 12:00:00 TS 25.8054 79.1349 main 0 0 _________OP___ -1 25.8000 79.2000 TC 30 25.8107 79.0697 1 1 95
1894184N25089 1894 26 NI BB NOT_NAMED 1894-07-05 15:00:00 TS 25.8000 79.2000 main 0 0 _________PO___ -1 25.8000 79.2000 TC 30 25.8000 79.2000 1 1 95
1894184N25089 1894 26 NI BB NOT_NAMED 1894-07-05 18:00:00 TS 25.8000 79.2000 main 0 0 _________OP___ -1 25.8000 79.2000 TC 30 25.8000 79.2000 1 0 0
1894184N25089 1894 26 NI BB NOT_NAMED 1894-07-05 21:00:00 TS 25.8000 79.2000 main 0 0 _________PP___ -1 25.8000 79.2000 TC 30 25.8000 79.2000 1 0 0
1894184N25089 1894 26 NI BB NOT_NAMED 1894-07-06 00:00:00 TS 25.8000 79.2000 main 0 0 _________OP___ -1 25.8000 79.2000 TC 30 25.8000 79.2000 1 0 0
1894184N25089 1894 26 NI BB NOT_NAMED 1894-07-06 03:00:00 TS 25.8000 79.2000 main 0 0 _________PO___ -1 25.8000 79.2000 TC 30 25.8000 79.2000 1 0 0
1894184N25089 1894 26 NI BB NOT_NAMED 1894-07-06 06:00:00 TS 25.8000 79.2000 main 0 0 _________OP___ -1 25.8000 79.2000 TC 30 25.8000 79.2000 1 0 0
1894184N25089 1894 26 NI BB NOT_NAMED 1894-07-06 09:00:00 TS 25.8000 79.2000 main 0 0 _________PP___ -1 25.8000 79.2000 TC 30 25.8000 79.2000 1 0 0
1894184N25089 1894 26 NI BB NOT_NAMED 1894-07-06 12:00:00 TS 25.8000 79.2000 main 0 0 _________OP___ -1 25.8000 79.2000 TC 30 25.8000 79.2000 1 0 0
1894184N25089 1894 26 NI BB NOT_NAMED 1894-07-06 15:00:00 TS 25.8000 79.2000 main 0 0 _________PO___ -1 25.8000 79.2000 TC 30 25.8000 79.2000 1 0 0
1894184N25089 1894 26 NI BB NOT_NAMED 1894-07-06 18:00:00 TS 25.8000 79.2061 main 0 0 _________OP___ -1 25.8000 79.2000 TC 30 25.8000 79.2122 1 0 0
1894184N25089 1894 26 NI BB NOT_NAMED 1894-07-06 21:00:00 TS 25.8000 79.2150 main 0 0 _________PP___ -1 25.8000 79.2075 TC 30 25.8000 79.2225 1 0 0
1894184N25089 1894 26 NI BB NOT_NAMED 1894-07-07 00:00:00 TS 25.8000 79.2108 main 0 0 _________OP___ -1 25.8000 79.2000 TC 30 25.8000 79.2216 1 0 270
1894184N25089 1894 26 NI BB NOT_NAMED 1894-07-07 03:00:00 TS 25.8000 79.1825 main 0 0 _________PO___ -1 25.8000 79.1650 TC 30 25.8000 79.2000 1 1 270
1894184N25089 1894 26 NI BB NOT_NAMED 1894-07-07 06:00:00 TS 25.8000 79.1212 main 0 0 _________OP___ -1 25.8000 79.1000 TC 30 25.8000 79.1425 1 1 270
1894184N25089 1894 26 NI BB NOT_NAMED 1894-07-07 09:00:00 TS 25.8000 79.0325 main 0 0 _________PP___ -1 25.8000 79.0000 TC 30 25.8001 79.0650 1 2 270
1894184N25089 1894 26 NI BB NOT_NAMED 1894-07-07 12:00:00 TS 25.8000 78.9400 main 0 0 _________OP___ -1 25.8000 78.9000 TC 30 25.8000 78.9800 1 1 270
1894184N25089 1894 26 NI BB NOT_NAMED 1894-07-07 15:00:00 TS 25.8000 78.8713 main 0 0 _________PO___ -1 25.8000 78.8425 TC 30 25.8000 78.9000 1 1 268
1894184N25089 1894 26 NI BB NOT_NAMED 1894-07-07 18:00:00 TS 25.7976 78.8579 main 0 0 _________OP___ -1 25.8000 78.8000 TC 30 25.7953 78.9158 1 0 0
1894184N25089 1894 26 NI BB NOT_NAMED 1894-07-07 21:00:00 TS 25.7955 78.8724 main 0 0 _________PP___ -1 25.7997 78.8175 TC 30 25.7913 78.9273 1 1 269
1894184N25089 1894 26 NI BB NOT_NAMED 1894-07-08 00:00:00 TS 25.7959 78.7876 main 0 0 _________OP___ -1 25.8000 78.7000 TC 30 25.7917 78.8751 1 3 270
1894184N25089 1894 26 NI BB NOT_NAMED 1894-07-08 03:00:00 TS 25.7964 78.4837 main 0 0 _________PO___ -1 25.7928 78.2674 TC 30 25.8000 78.7000 1 7 271
1894184N25089 1894 26 NI BB NOT_NAMED 1894-07-08 06:00:00 TS 25.8134 78.0128 main 0 0 _________OP___ -1 25.8000 77.7000 TC 30 25.8269 78.3256 1 9 274
1894184N25089 1894 26 NI AS NOT_NAMED 1894-07-08 09:00:00 TS 25.8544 77.5103 main 0 0 _________PP___ -1 25.8499 77.1926 TC 30 25.8589 77.8280 1 9 275
1894184N25089 1894 26 NI AS NOT_NAMED 1894-07-08 12:00:00 TS 25.8931 76.9831 main 0 0 _________OP___ -1 25.9000 76.7000 TC 30 25.8862 77.2663 1 9 273
1894184N25089 1894 26 NI AS NOT_NAMED 1894-07-08 15:00:00 TS 25.9074 76.4750 main 0 0 _________PO___ -1 25.9147 76.2500 TC 30 25.9000 76.7000 1 9 270
1894184N25089 1894 26 NI AS NOT_NAMED 1894-07-08 18:00:00 TS 25.8923 76.0108 main 0 0 _________OP___ -1 25.9000 75.8000 TC 30 25.8846 76.2215 1 9 266
1894184N25089 1894 26 NI AS NOT_NAMED 1894-07-08 21:00:00 TS 25.8532 75.5284 main 0 0 _________PP___ -1 25.8499 75.3074 TC 30 25.8566 75.7495 1 9 265
1894184N25089 1894 26 NI AS NOT_NAMED 1894-07-09 00:00:00 TS 25.8126 75.0389 main 0 0 _________OP___ -1 25.8000 74.8000 TC 30 25.8253 75.2778 1 9 266
1894184N25089 1894 26 NI AS NOT_NAMED 1894-07-09 03:00:00 TS 25.7962 74.5500 main 0 0 _________PO___ -1 25.7923 74.3001 TC 30 25.8000 74.8000 1 9 269
1894184N25089 1894 26 NI AS NOT_NAMED 1894-07-09 06:00:00 TS 25.7962 74.0557 main 0 0 _________OP___ -1 25.8000 73.8000 TC 30 25.7923 74.3114 1 9 270
1894184N25089 1894 26 NI AS NOT_NAMED 1894-07-09 09:00:00 TS 25.7958 73.5576 main 0 0 _________PP___ -1 25.7998 73.3000 TC 30 25.7918 73.8152 1 9 270
1894184N25089 1894 26 NI AS NOT_NAMED 1894-07-09 12:00:00 TS 25.7977 73.0557 main 0 0 _________OP___ -1 25.8000 72.8000 TC 30 25.7954 73.3113 1 9 270
1894184N25089 1894 26 NI AS NOT_NAMED 1894-07-09 15:00:00 TS 25.7999 72.5538 main 0 0 _________PO___ -1 25.7997 72.3075 TC 30 25.8000 72.8000 1 9 270
1894184N25089 1894 26 NI AS NOT_NAMED 1894-07-09 18:00:00 TS 25.8017 72.0472 main 0 0 _________OP___ -1 25.8000 71.8000 TC 30 25.8033 72.2945 1 9 270
1894184N25089 1894 26 NI AS NOT_NAMED 1894-07-09 21:00:00 TS 25.8031 71.5226 main 0 0 _________PP___ -1 25.7998 71.2650 TC 30 25.8064 71.7802 1 10 270
1894184N25089 1894 26 NI AS NOT_NAMED 1894-07-10 00:00:00 TS 25.8032 70.9754 main 0 0 _________OP___ -1 25.8000 70.7000 TC 30 25.8063 71.2508 1 10 270
1894184N25089 1894 26 NI AS NOT_NAMED 1894-07-10 03:00:00 TS 25.8037 70.4038 main 0 0 _________PO___ -1 25.8073 70.1076 TC 30 25.8000 70.7000 1 10 269
1894184N25089 1894 26 NI AS NOT_NAMED 1894-07-10 06:00:00 TS 25.7868 69.8146 main 0 0 _________OP___ -1 25.8000 69.5000 TC 30 25.7735 70.1292 1 11 267
1894184N25089 1894 26 NI AS NOT_NAMED 1894-07-10 09:00:00 TS 25.7457 69.2221 main 0 0 _________PP___ -1 25.7497 68.9073 TC 30 25.7417 69.5368 1 11 266
1894184N25089 1894 26 NI AS NOT_NAMED 1894-07-10 12:00:00 TS 25.7070 68.6130 main 0 0 _________OP___ -1 25.7000 68.3000 TC 30 25.7140 68.9260 1 11 267
1894184N25089 1894 26 NI AS NOT_NAMED 1894-07-10 15:00:00 TS 25.6924 67.9787 main 0 0 _________PO___ -1 25.6848 67.6575 TC 30 25.7000 68.3000 1 11 270
1894184N25089 1894 26 NI AS NOT_NAMED 1894-07-10 18:00:00 TS 25.7038 67.3780 main 0 0 _________OP___ -1 25.7000 67.0000 TC 30 25.7066 67.6615 1 11 272
1894184N25089 1894 26 NI AS NOT_NAMED 1894-07-10 21:00:00 TS 25.7351 66.7471 main 0 0 _________PP___ -1 25.7430 66.3477 TC 30 25.7299 67.0134 1 11 274
1894184N25089 1894 26 NI AS NOT_NAMED 1894-07-11 00:00:00 TS 25.7754 66.1390 main 0 0 _________OP___ -1 25.8000 65.7000 TC 30 25.7632 66.3585 1 9 274
1894184N25089 1894 26 NI AS NOT_NAMED 1894-07-11 03:00:00 NR 25.8000 65.7000 main 0 __________O___ -1 TC 25.8000 65.7000 1 8 274

IBTrACS Databaseについて

本データベースは、米国NOAAが公開する1842年以降の世界の熱帯低気圧のベストトラックデータアーカイブInternational Best Track Archive for Climate Stewardship (IBTrACS)を、ウェブで閲覧しやすい形式に変換したものです。

最終更新日:2021-10-08